createdAt,value
2022-11-01T00:04:37.880Z,100
2022-11-01T00:09:39.461Z,98.06081
2022-11-01T00:14:41.221Z,97.86424
2022-11-01T00:19:42.829Z,94.35674
2022-11-01T00:24:44.310Z,96.83174
2022-11-01T00:29:45.806Z,94.64892
2022-11-01T00:34:47.238Z,95.7007
2022-11-01T00:39:48.694Z,94.64031
2022-11-01T00:44:50.368Z,96.74492
2022-11-01T00:49:52.030Z,92.46527
2022-11-01T00:54:53.478Z,95.42921
2022-11-01T00:59:54.926Z,97.82756
2022-11-01T01:04:56.698Z,100
2022-11-01T01:09:58.258Z,96.32037
2022-11-01T01:15:00.267Z,97.47803
2022-11-01T01:20:01.801Z,100
2022-11-01T01:25:03.707Z,98.31467
2022-11-01T01:30:05.309Z,99.89556
2022-11-01T01:35:07.155Z,99.5639
2022-11-01T01:40:08.933Z,98.75496
2022-11-01T01:45:11.026Z,100
2022-11-01T01:50:12.761Z,98.22047
2022-11-01T01:55:14.648Z,94.42891
2022-11-01T02:00:16.811Z,94.33581
2022-11-01T02:05:18.619Z,94.8978
2022-11-01T02:10:20.409Z,97.95894
2022-11-01T02:15:22.161Z,99.20925
2022-11-01T02:20:24.275Z,96.36977
2022-11-01T02:25:26.105Z,95.05747
2022-11-01T02:30:27.717Z,94.80526
2022-11-01T02:35:29.591Z,95.08013
2022-11-01T02:40:31.400Z,96.0589
2022-11-01T02:45:33.403Z,97.71158
2022-11-01T02:50:35.180Z,94.8643
2022-11-01T02:55:36.946Z,97.98565
2022-11-01T03:00:38.797Z,91.79722
2022-11-01T03:05:40.337Z,94.11963
2022-11-01T03:10:41.828Z,92.67108
2022-11-01T03:15:43.739Z,95.12024
2022-11-01T03:20:45.276Z,95.37007
2022-11-01T03:25:46.728Z,97.22344
2022-11-01T03:30:48.360Z,98.55211
2022-11-01T03:35:49.915Z,94.71503
2022-11-01T03:40:51.371Z,94.74093
2022-11-01T03:45:53.683Z,94.10234
2022-11-01T03:50:55.191Z,92.82628
2022-11-01T03:55:56.819Z,93.51997
2022-11-01T04:00:58.470Z,93.38903
2022-11-01T04:05:59.979Z,93.31524
2022-11-01T04:11:01.784Z,96.26667
2022-11-01T04:16:03.748Z,94.53464
2022-11-01T04:21:05.239Z,93.02887
2022-11-01T04:26:07.150Z,90.50498
2022-11-01T04:31:08.772Z,84.18219
2022-11-01T04:36:10.730Z,82.5599
2022-11-01T04:41:12.476Z,82.16586
2022-11-01T04:46:14.686Z,82.81997
2022-11-01T04:51:16.763Z,77.98725
2022-11-01T04:56:18.489Z,83.56212
2022-11-01T05:01:20.521Z,80.93188
2022-11-01T05:06:22.469Z,79.03562
2022-11-01T05:11:24.308Z,77.80496
2022-11-01T05:16:26.351Z,74.26904
2022-11-01T05:21:28.168Z,72.76149
2022-11-01T05:26:29.842Z,71.61003
2022-11-01T05:31:31.632Z,66.66843
2022-11-01T05:36:33.470Z,67.72052
2022-11-01T05:41:35.141Z,68.39368
2022-11-01T05:46:37.147Z,67.49894
2022-11-01T05:51:38.841Z,63.40579
2022-11-01T05:56:40.718Z,64.14457
2022-11-01T06:01:42.663Z,60.22675
2022-11-01T06:06:44.365Z,62.16809
2022-11-01T06:11:45.843Z,63.77575
2022-11-01T06:16:47.917Z,55.79361
2022-11-01T06:21:49.452Z,62.49016
2022-11-01T06:26:50.954Z,57.02941
2022-11-01T06:31:52.728Z,55.90927
2022-11-01T06:36:54.342Z,56.4691
2022-11-01T06:41:56.158Z,56.59976
2022-11-01T06:46:58.290Z,54.12369
2022-11-01T06:52:00.158Z,54.30636
2022-11-01T06:57:01.635Z,54.78403
2022-11-01T07:02:03.388Z,51.1975
2022-11-01T07:07:04.962Z,51.90248
2022-11-01T07:12:06.939Z,50.33624
2022-11-01T07:17:08.993Z,51.90872
2022-11-01T07:22:10.891Z,53.01249
2022-11-01T07:27:16.418Z,51.9178
2022-11-01T07:32:20.793Z,51.84677
2022-11-01T07:37:22.619Z,51.80641
2022-11-01T07:42:24.833Z,50.57464
2022-11-01T07:47:26.919Z,50.81469
2022-11-01T07:52:28.987Z,49.56886
2022-11-01T07:57:30.925Z,48.91885
2022-11-01T08:02:32.697Z,49.57955
2022-11-01T08:07:34.751Z,48.18368
2022-11-01T08:12:36.592Z,48.35068
2022-11-01T08:17:38.595Z,48.98117
2022-11-01T08:22:40.563Z,50.87494
2022-11-01T08:27:42.613Z,50.62512
2022-11-01T08:32:44.768Z,47.98352
2022-11-01T08:37:46.532Z,51.59235
2022-11-01T08:42:48.052Z,49.96386
2022-11-01T08:47:50.043Z,47.49944
2022-11-01T08:52:51.597Z,49.35802
2022-11-01T08:57:53.168Z,49.60065
2022-11-01T09:02:54.734Z,50.98416
2022-11-01T09:07:56.213Z,47.47904
2022-11-01T09:12:57.790Z,49.83759
2022-11-01T09:17:59.737Z,43.56553
2022-11-01T09:23:01.650Z,44.91741
2022-11-01T09:28:03.253Z,44.46428
2022-11-01T09:33:05.250Z,46.77373
2022-11-01T09:38:07.079Z,47.58216
2022-11-01T09:43:09.034Z,48.92032
2022-11-01T09:48:11.183Z,44.4372
2022-11-01T09:53:12.745Z,44.9825
2022-11-01T09:58:14.231Z,46.91663
2022-11-01T10:03:15.931Z,42.4397
2022-11-01T10:08:17.679Z,41.68657
2022-11-01T10:13:19.292Z,40.43773
2022-11-01T10:18:21.295Z,41.04168
2022-11-01T10:23:22.812Z,41.62871
2022-11-01T10:28:24.398Z,40.6592
2022-11-01T10:33:26.046Z,42.70319
2022-11-01T10:38:41.864Z,41.23112
2022-11-01T10:44:01.179Z,41.75503
2022-11-01T10:49:03.366Z,41.22748
2022-11-01T10:54:05.351Z,40.5894
2022-11-01T10:59:07.018Z,42.09552
2022-11-01T11:04:08.873Z,40.68915
2022-11-01T11:09:10.540Z,40.83848
2022-11-01T11:14:12.421Z,40.68964
2022-11-01T11:19:14.385Z,39.22833
2022-11-01T11:24:16.033Z,38.09365
2022-11-01T11:29:18.005Z,40.29629
2022-11-01T11:34:19.762Z,36.1451
2022-11-01T11:39:21.410Z,38.13692
2022-11-01T11:44:23.175Z,41.64838
2022-11-01T11:49:25.360Z,42.04194
2022-11-01T11:54:27.131Z,39.40316
2022-11-01T11:59:28.901Z,42.13824
2022-11-01T12:04:30.614Z,40.9478
2022-11-01T12:09:32.428Z,41.2408
2022-11-01T12:14:34.168Z,42.5947
2022-11-01T12:19:36.373Z,40.1159
2022-11-01T12:24:38.354Z,41.08241
2022-11-01T12:29:40.345Z,49.54924
2022-11-01T12:34:42.774Z,48.00356
2022-11-01T12:39:44.626Z,52.67246
2022-11-01T12:44:46.358Z,54.36253
2022-11-01T12:49:48.155Z,53.19228
2022-11-01T12:54:49.833Z,56.6386
2022-11-01T12:59:51.436Z,54.67173
2022-11-01T13:04:52.942Z,53.84457
2022-11-01T13:09:54.431Z,54.87805
2022-11-01T13:14:55.878Z,55.17511
2022-11-01T13:19:57.753Z,59.38183
2022-11-01T13:24:59.187Z,64.03568
2022-11-01T13:30:00.777Z,59.86218
2022-11-01T13:35:02.418Z,60.01674
2022-11-01T13:40:03.878Z,60.35246
2022-11-01T13:45:05.377Z,60.14064
2022-11-01T13:50:07.411Z,63.23289
2022-11-01T13:55:08.998Z,63.44964
2022-11-01T14:00:10.669Z,61.94851
2022-11-01T14:05:12.361Z,58.23116
2022-11-01T14:10:13.818Z,55.32135
2022-11-01T14:15:15.426Z,54.89427
2022-11-01T14:20:17.515Z,51.85759
2022-11-01T14:30:21.781Z,60.37161
2022-11-01T14:35:23.359Z,56.05546
2022-11-01T14:40:24.840Z,54.13515
2022-11-01T14:45:26.639Z,55.00529
2022-11-01T14:50:28.298Z,57.52706
2022-11-01T14:55:29.957Z,57.61531
2022-11-01T15:00:31.620Z,58.72313
2022-11-01T15:05:33.530Z,62.79768
2022-11-01T15:10:35.159Z,62.84442
2022-11-01T15:15:36.814Z,63.75736
2022-11-01T15:20:38.541Z,67.20767
2022-11-01T15:25:40.033Z,75.46249
2022-11-01T15:30:41.562Z,81.96855
2022-11-01T15:35:43.281Z,86.81889
2022-11-01T15:40:44.745Z,92.87055
2022-11-01T15:45:46.187Z,97.97001
2022-11-01T15:50:48.043Z,100
2022-11-01T15:55:49.480Z,100
2022-11-01T16:00:51.217Z,100
2022-11-01T16:05:56.928Z,100
2022-11-01T16:11:01.511Z,100
2022-11-01T16:16:03.048Z,100
2022-11-01T16:21:05.348Z,100
2022-11-01T16:26:06.809Z,100
2022-11-01T16:31:08.527Z,100
2022-11-01T16:36:10.126Z,100
2022-11-01T16:41:12.138Z,100
2022-11-01T16:46:13.644Z,100
2022-11-01T16:51:15.313Z,100
2022-11-01T16:56:35.447Z,100
2022-11-01T17:01:38.278Z,100
2022-11-01T17:06:40.181Z,100
2022-11-01T17:11:46.360Z,100
2022-11-01T17:16:51.404Z,100
2022-11-01T17:21:53.425Z,100
2022-11-01T17:26:55.013Z,100
2022-11-01T17:31:56.653Z,100
2022-11-01T17:36:58.260Z,100
2022-11-01T17:41:59.751Z,100
2022-11-01T17:47:01.639Z,100
2022-11-01T17:52:03.631Z,100
2022-11-01T17:57:05.424Z,100
2022-11-01T18:02:07.056Z,100
2022-11-01T18:07:08.942Z,100
2022-11-01T18:12:10.813Z,100
2022-11-01T18:17:12.576Z,100
2022-11-01T18:22:14.745Z,100
2022-11-01T18:27:16.736Z,100
2022-11-01T18:32:18.661Z,100
2022-11-01T18:37:20.413Z,100
2022-11-01T18:42:22.178Z,100
2022-11-01T18:47:24.042Z,100
2022-11-01T18:52:26.308Z,100
2022-11-01T18:57:27.945Z,100
2022-11-01T19:02:29.738Z,100
2022-11-01T19:07:50.402Z,100
2022-11-01T19:13:07.313Z,100
2022-11-01T19:18:09.081Z,100
2022-11-01T19:23:11.205Z,100
2022-11-01T19:28:12.799Z,100
2022-11-01T19:33:14.612Z,100
2022-11-01T19:38:16.716Z,100
2022-11-01T19:43:18.499Z,100
2022-11-01T19:48:20.244Z,100
2022-11-01T19:53:22.232Z,100
2022-11-01T19:58:23.991Z,100
2022-11-01T20:03:26.100Z,100
2022-11-01T20:08:28.145Z,100
2022-11-01T20:13:29.952Z,100
2022-11-01T20:18:31.774Z,100
2022-11-01T20:23:33.814Z,100
2022-11-01T20:28:35.618Z,100
2022-11-01T20:33:37.419Z,100
2022-11-01T20:38:39.488Z,100
2022-11-01T20:43:41.075Z,100
2022-11-01T20:48:42.823Z,100
2022-11-01T20:53:45.039Z,100
2022-11-01T20:58:46.961Z,100
2022-11-01T21:03:48.973Z,100
2022-11-01T21:08:50.748Z,100
2022-11-01T21:13:52.210Z,100
2022-11-01T21:18:53.672Z,100
2022-11-01T21:23:55.982Z,100
2022-11-01T21:28:57.684Z,100
2022-11-01T21:33:59.336Z,100
2022-11-01T21:39:01.002Z,100
2022-11-01T21:44:02.592Z,100
2022-11-01T21:49:04.095Z,100
2022-11-01T21:54:05.859Z,100
2022-11-01T21:59:07.551Z,100
2022-11-01T22:04:09.346Z,100
2022-11-01T22:09:11.420Z,100
2022-11-01T22:14:13.207Z,100
2022-11-01T22:19:14.896Z,100
2022-11-01T22:24:17.291Z,100
2022-11-01T22:29:19.062Z,100
2022-11-01T22:34:20.753Z,100
2022-11-01T22:39:22.229Z,100
2022-11-01T22:44:23.899Z,100
2022-11-01T22:49:25.576Z,100
2022-11-01T22:54:27.687Z,100
2022-11-01T22:59:32.908Z,100
2022-11-01T23:04:34.953Z,100
2022-11-01T23:09:36.778Z,100
2022-11-01T23:14:38.648Z,100
2022-11-01T23:19:40.272Z,100
2022-11-01T23:24:42.575Z,100
2022-11-01T23:29:44.217Z,100
2022-11-01T23:34:46.128Z,100
2022-11-01T23:39:48.362Z,100
2022-11-01T23:44:50.201Z,100
2022-11-01T23:49:51.625Z,100
2022-11-01T23:54:53.422Z,100
2022-11-01T23:59:55.100Z,100
